sensor_id;sensor_type;location;lat;lon;timestamp;P1;durP1;ratioP1;P2;durP2;ratioP2
21046;SDS011;10682;50.874;3.656;2023-06-22T00:00:22;11.68;;;6.38;;
21046;SDS011;10682;50.874;3.656;2023-06-22T00:02:49;15.75;;;6.57;;
21046;SDS011;10682;50.874;3.656;2023-06-22T00:05:16;9.32;;;6.22;;
21046;SDS011;10682;50.874;3.656;2023-06-22T00:07:43;18.38;;;7.05;;
21046;SDS011;10682;50.874;3.656;2023-06-22T00:10:10;18.52;;;7.10;;
21046;SDS011;10682;50.874;3.656;2023-06-22T00:12:37;10.85;;;6.43;;
21046;SDS011;10682;50.874;3.656;2023-06-22T00:15:04;14.40;;;6.88;;
21046;SDS011;10682;50.874;3.656;2023-06-22T00:17:32;12.07;;;6.45;;
21046;SDS011;10682;50.874;3.656;2023-06-22T00:19:59;10.20;;;6.10;;
21046;SDS011;10682;50.874;3.656;2023-06-22T00:22:26;11.35;;;6.60;;
21046;SDS011;10682;50.874;3.656;2023-06-22T00:24:56;10.50;;;6.95;;
21046;SDS011;10682;50.874;3.656;2023-06-22T00:27:23;11.95;;;7.13;;
21046;SDS011;10682;50.874;3.656;2023-06-22T00:29:50;13.80;;;7.13;;
21046;SDS011;10682;50.874;3.656;2023-06-22T00:32:18;10.10;;;6.22;;
21046;SDS011;10682;50.874;3.656;2023-06-22T00:34:45;14.38;;;7.65;;
21046;SDS011;10682;50.874;3.656;2023-06-22T00:37:12;11.27;;;7.15;;
21046;SDS011;10682;50.874;3.656;2023-06-22T00:39:39;11.13;;;6.55;;
21046;SDS011;10682;50.874;3.656;2023-06-22T00:42:06;10.80;;;6.78;;
21046;SDS011;10682;50.874;3.656;2023-06-22T00:44:34;13.05;;;6.97;;
21046;SDS011;10682;50.874;3.656;2023-06-22T00:47:03;13.98;;;7.18;;
21046;SDS011;10682;50.874;3.656;2023-06-22T00:49:31;17.75;;;7.70;;
21046;SDS011;10682;50.874;3.656;2023-06-22T00:51:58;11.52;;;6.47;;
21046;SDS011;10682;50.874;3.656;2023-06-22T00:54:25;12.52;;;6.70;;
21046;SDS011;10682;50.874;3.656;2023-06-22T00:56:53;12.88;;;6.75;;
21046;SDS011;10682;50.874;3.656;2023-06-22T00:59:23;18.25;;;7.38;;
21046;SDS011;10682;50.874;3.656;2023-06-22T01:01:52;12.93;;;7.47;;
21046;SDS011;10682;50.874;3.656;2023-06-22T01:04:19;14.07;;;7.07;;
21046;SDS011;10682;50.874;3.656;2023-06-22T01:06:57;15.43;;;7.25;;
21046;SDS011;10682;50.874;3.656;2023-06-22T01:10:03;15.68;;;7.45;;
21046;SDS011;10682;50.874;3.656;2023-06-22T01:12:40;12.38;;;6.68;;
21046;SDS011;10682;50.874;3.656;2023-06-22T01:17:47;13.10;;;7.43;;
21046;SDS011;10682;50.874;3.656;2023-06-22T01:20:16;13.30;;;7.45;;
21046;SDS011;10682;50.874;3.656;2023-06-22T01:22:48;12.55;;;7.32;;
21046;SDS011;10682;50.874;3.656;2023-06-22T01:25:46;13.27;;;7.22;;
21046;SDS011;10682;50.874;3.656;2023-06-22T01:28:43;14.10;;;6.88;;
21046;SDS011;10682;50.874;3.656;2023-06-22T01:31:15;9.05;;;6.07;;
21046;SDS011;10682;50.874;3.656;2023-06-22T01:33:57;13.27;;;6.65;;
21046;SDS011;10682;50.874;3.656;2023-06-22T01:36:27;10.88;;;6.85;;
21046;SDS011;10682;50.874;3.656;2023-06-22T01:38:56;9.15;;;6.20;;
21046;SDS011;10682;50.874;3.656;2023-06-22T01:41:25;10.73;;;6.30;;
21046;SDS011;10682;50.874;3.656;2023-06-22T01:43:54;11.43;;;6.65;;
21046;SDS011;10682;50.874;3.656;2023-06-22T01:46:22;10.80;;;6.47;;
21046;SDS011;10682;50.874;3.656;2023-06-22T01:48:49;14.13;;;7.13;;
21046;SDS011;10682;50.874;3.656;2023-06-22T01:51:17;16.60;;;6.72;;
21046;SDS011;10682;50.874;3.656;2023-06-22T01:53:45;13.93;;;7.03;;
21046;SDS011;10682;50.874;3.656;2023-06-22T01:56:15;10.55;;;7.25;;
21046;SDS011;10682;50.874;3.656;2023-06-22T02:01:50;11.95;;;7.18;;
21046;SDS011;10682;50.874;3.656;2023-06-22T02:07:44;12.77;;;6.78;;
21046;SDS011;10682;50.874;3.656;2023-06-22T02:10:16;11.93;;;6.70;;
21046;SDS011;10682;50.874;3.656;2023-06-22T02:12:47;14.15;;;7.45;;
21046;SDS011;10682;50.874;3.656;2023-06-22T02:15:19;14.30;;;7.07;;
21046;SDS011;10682;50.874;3.656;2023-06-22T02:17:47;17.08;;;7.40;;
21046;SDS011;10682;50.874;3.656;2023-06-22T02:20:15;14.38;;;7.60;;
21046;SDS011;10682;50.874;3.656;2023-06-22T02:22:42;12.82;;;6.90;;
21046;SDS011;10682;50.874;3.656;2023-06-22T02:25:09;10.50;;;6.57;;
21046;SDS011;10682;50.874;3.656;2023-06-22T02:27:36;11.93;;;6.45;;
21046;SDS011;10682;50.874;3.656;2023-06-22T02:30:09;17.52;;;8.23;;
21046;SDS011;10682;50.874;3.656;2023-06-22T02:32:41;15.05;;;7.95;;
21046;SDS011;10682;50.874;3.656;2023-06-22T02:35:09;14.38;;;7.93;;
21046;SDS011;10682;50.874;3.656;2023-06-22T02:37:36;14.95;;;7.78;;
21046;SDS011;10682;50.874;3.656;2023-06-22T02:40:08;14.32;;;7.72;;
21046;SDS011;10682;50.874;3.656;2023-06-22T02:42:36;13.90;;;8.25;;
21046;SDS011;10682;50.874;3.656;2023-06-22T02:45:05;16.20;;;8.73;;
21046;SDS011;10682;50.874;3.656;2023-06-22T02:47:33;16.23;;;8.80;;
21046;SDS011;10682;50.874;3.656;2023-06-22T02:50:01;15.50;;;9.00;;
21046;SDS011;10682;50.874;3.656;2023-06-22T02:52:28;17.77;;;8.35;;
21046;SDS011;10682;50.874;3.656;2023-06-22T02:54:55;17.13;;;8.90;;
21046;SDS011;10682;50.874;3.656;2023-06-22T02:57:22;10.75;;;7.25;;
21046;SDS011;10682;50.874;3.656;2023-06-22T02:59:49;13.57;;;7.63;;
21046;SDS011;10682;50.874;3.656;2023-06-22T03:02:16;19.70;;;8.07;;
21046;SDS011;10682;50.874;3.656;2023-06-22T03:04:44;17.23;;;8.25;;
21046;SDS011;10682;50.874;3.656;2023-06-22T03:07:15;16.95;;;8.95;;
21046;SDS011;10682;50.874;3.656;2023-06-22T03:09:44;17.45;;;8.02;;
21046;SDS011;10682;50.874;3.656;2023-06-22T03:12:11;16.92;;;9.52;;
21046;SDS011;10682;50.874;3.656;2023-06-22T03:14:40;15.63;;;8.88;;
21046;SDS011;10682;50.874;3.656;2023-06-22T03:17:07;17.52;;;8.57;;
21046;SDS011;10682;50.874;3.656;2023-06-22T03:19:35;14.63;;;8.35;;
21046;SDS011;10682;50.874;3.656;2023-06-22T03:22:02;15.35;;;8.55;;
21046;SDS011;10682;50.874;3.656;2023-06-22T03:24:33;12.82;;;7.63;;
21046;SDS011;10682;50.874;3.656;2023-06-22T03:27:00;14.50;;;8.13;;
21046;SDS011;10682;50.874;3.656;2023-06-22T03:29:31;17.58;;;8.60;;
21046;SDS011;10682;50.874;3.656;2023-06-22T03:31:58;19.45;;;9.57;;
21046;SDS011;10682;50.874;3.656;2023-06-22T03:34:25;18.25;;;8.48;;
21046;SDS011;10682;50.874;3.656;2023-06-22T03:36:52;18.20;;;8.68;;
21046;SDS011;10682;50.874;3.656;2023-06-22T03:39:19;16.20;;;8.75;;
21046;SDS011;10682;50.874;3.656;2023-06-22T03:41:46;19.08;;;9.50;;
21046;SDS011;10682;50.874;3.656;2023-06-22T03:44:13;16.73;;;8.73;;
21046;SDS011;10682;50.874;3.656;2023-06-22T03:46:40;17.13;;;9.18;;
21046;SDS011;10682;50.874;3.656;2023-06-22T03:49:07;15.18;;;8.75;;
21046;SDS011;10682;50.874;3.656;2023-06-22T03:51:35;16.73;;;8.90;;
21046;SDS011;10682;50.874;3.656;2023-06-22T03:54:02;18.88;;;8.68;;
21046;SDS011;10682;50.874;3.656;2023-06-22T03:56:29;16.75;;;9.38;;
21046;SDS011;10682;50.874;3.656;2023-06-22T03:58:56;15.45;;;8.25;;
21046;SDS011;10682;50.874;3.656;2023-06-22T04:01:23;15.68;;;8.27;;
21046;SDS011;10682;50.874;3.656;2023-06-22T04:03:50;14.52;;;8.30;;
21046;SDS011;10682;50.874;3.656;2023-06-22T04:06:17;18.20;;;8.85;;
21046;SDS011;10682;50.874;3.656;2023-06-22T04:08:45;16.88;;;9.07;;
21046;SDS011;10682;50.874;3.656;2023-06-22T04:11:17;17.05;;;8.55;;
21046;SDS011;10682;50.874;3.656;2023-06-22T04:13:45;15.25;;;8.63;;
21046;SDS011;10682;50.874;3.656;2023-06-22T04:16:16;17.80;;;8.60;;
21046;SDS011;10682;50.874;3.656;2023-06-22T04:18:43;15.07;;;8.05;;
21046;SDS011;10682;50.874;3.656;2023-06-22T04:21:10;15.32;;;7.93;;
21046;SDS011;10682;50.874;3.656;2023-06-22T04:23:37;14.27;;;8.98;;
21046;SDS011;10682;50.874;3.656;2023-06-22T04:26:04;15.60;;;8.52;;
21046;SDS011;10682;50.874;3.656;2023-06-22T04:28:31;13.43;;;7.80;;
21046;SDS011;10682;50.874;3.656;2023-06-22T04:31:03;14.30;;;8.77;;
21046;SDS011;10682;50.874;3.656;2023-06-22T04:33:31;14.80;;;8.98;;
21046;SDS011;10682;50.874;3.656;2023-06-22T04:35:58;18.02;;;9.70;;
21046;SDS011;10682;50.874;3.656;2023-06-22T04:38:30;17.25;;;9.10;;
21046;SDS011;10682;50.874;3.656;2023-06-22T04:40:59;15.52;;;8.50;;
21046;SDS011;10682;50.874;3.656;2023-06-22T04:43:29;18.73;;;9.27;;
21046;SDS011;10682;50.874;3.656;2023-06-22T04:45:57;16.52;;;9.13;;
21046;SDS011;10682;50.874;3.656;2023-06-22T04:48:29;16.85;;;9.25;;
21046;SDS011;10682;50.874;3.656;2023-06-22T04:51:00;16.52;;;8.55;;
21046;SDS011;10682;50.874;3.656;2023-06-22T04:53:30;16.77;;;8.18;;
21046;SDS011;10682;50.874;3.656;2023-06-22T04:55:58;12.48;;;7.90;;
21046;SDS011;10682;50.874;3.656;2023-06-22T04:58:25;15.45;;;9.52;;
21046;SDS011;10682;50.874;3.656;2023-06-22T05:00:55;18.40;;;9.35;;
21046;SDS011;10682;50.874;3.656;2023-06-22T05:03:26;17.70;;;9.70;;
21046;SDS011;10682;50.874;3.656;2023-06-22T05:05:53;22.08;;;9.52;;
21046;SDS011;10682;50.874;3.656;2023-06-22T05:08:20;17.75;;;8.93;;
21046;SDS011;10682;50.874;3.656;2023-06-22T05:10:48;16.17;;;8.45;;
21046;SDS011;10682;50.874;3.656;2023-06-22T05:13:30;17.40;;;9.45;;
21046;SDS011;10682;50.874;3.656;2023-06-22T05:15:57;19.10;;;8.48;;
21046;SDS011;10682;50.874;3.656;2023-06-22T05:18:29;24.05;;;9.98;;
21046;SDS011;10682;50.874;3.656;2023-06-22T05:20:59;20.75;;;9.63;;
21046;SDS011;10682;50.874;3.656;2023-06-22T05:23:26;20.92;;;9.10;;
21046;SDS011;10682;50.874;3.656;2023-06-22T05:25:53;18.50;;;7.95;;
21046;SDS011;10682;50.874;3.656;2023-06-22T05:28:23;15.45;;;8.80;;
21046;SDS011;10682;50.874;3.656;2023-06-22T05:30:50;15.73;;;8.80;;
21046;SDS011;10682;50.874;3.656;2023-06-22T05:33:18;19.55;;;9.52;;
21046;SDS011;10682;50.874;3.656;2023-06-22T05:35:45;13.05;;;8.30;;
21046;SDS011;10682;50.874;3.656;2023-06-22T05:38:12;21.20;;;9.48;;
21046;SDS011;10682;50.874;3.656;2023-06-22T05:40:40;19.63;;;9.90;;
21046;SDS011;10682;50.874;3.656;2023-06-22T05:43:07;19.17;;;9.20;;
21046;SDS011;10682;50.874;3.656;2023-06-22T05:45:34;17.05;;;8.57;;
21046;SDS011;10682;50.874;3.656;2023-06-22T05:48:01;17.63;;;8.45;;
21046;SDS011;10682;50.874;3.656;2023-06-22T05:50:28;15.10;;;8.63;;
21046;SDS011;10682;50.874;3.656;2023-06-22T05:52:56;19.70;;;8.57;;
21046;SDS011;10682;50.874;3.656;2023-06-22T05:55:23;18.40;;;9.02;;
21046;SDS011;10682;50.874;3.656;2023-06-22T05:57:50;18.83;;;9.52;;
21046;SDS011;10682;50.874;3.656;2023-06-22T06:00:17;14.98;;;8.88;;
21046;SDS011;10682;50.874;3.656;2023-06-22T06:02:45;16.73;;;9.23;;
21046;SDS011;10682;50.874;3.656;2023-06-22T06:05:12;16.88;;;8.70;;
21046;SDS011;10682;50.874;3.656;2023-06-22T06:07:41;16.60;;;9.25;;
21046;SDS011;10682;50.874;3.656;2023-06-22T06:10:09;13.93;;;8.65;;
21046;SDS011;10682;50.874;3.656;2023-06-22T06:12:36;19.27;;;10.57;;
21046;SDS011;10682;50.874;3.656;2023-06-22T06:15:04;18.17;;;9.95;;
21046;SDS011;10682;50.874;3.656;2023-06-22T06:17:34;20.73;;;11.23;;
21046;SDS011;10682;50.874;3.656;2023-06-22T06:20:01;20.13;;;10.20;;
21046;SDS011;10682;50.874;3.656;2023-06-22T06:22:31;16.25;;;9.23;;
21046;SDS011;10682;50.874;3.656;2023-06-22T06:24:58;17.80;;;10.90;;
21046;SDS011;10682;50.874;3.656;2023-06-22T06:27:25;18.85;;;10.02;;
21046;SDS011;10682;50.874;3.656;2023-06-22T06:29:55;19.52;;;10.98;;
21046;SDS011;10682;50.874;3.656;2023-06-22T06:32:23;17.50;;;9.32;;
21046;SDS011;10682;50.874;3.656;2023-06-22T06:34:53;19.38;;;9.93;;
21046;SDS011;10682;50.874;3.656;2023-06-22T06:37:21;17.55;;;10.70;;
21046;SDS011;10682;50.874;3.656;2023-06-22T06:39:48;18.65;;;9.98;;
21046;SDS011;10682;50.874;3.656;2023-06-22T06:42:15;17.95;;;9.68;;
21046;SDS011;10682;50.874;3.656;2023-06-22T06:44:42;18.35;;;10.98;;
21046;SDS011;10682;50.874;3.656;2023-06-22T06:47:09;20.05;;;10.77;;
21046;SDS011;10682;50.874;3.656;2023-06-22T06:49:36;16.02;;;10.45;;
21046;SDS011;10682;50.874;3.656;2023-06-22T06:52:04;19.45;;;11.63;;
21046;SDS011;10682;50.874;3.656;2023-06-22T06:54:31;19.92;;;12.05;;
21046;SDS011;10682;50.874;3.656;2023-06-22T06:56:58;20.63;;;11.85;;
21046;SDS011;10682;50.874;3.656;2023-06-22T06:59:25;21.23;;;12.32;;
21046;SDS011;10682;50.874;3.656;2023-06-22T07:01:52;20.25;;;12.55;;
21046;SDS011;10682;50.874;3.656;2023-06-22T07:04:20;21.00;;;13.13;;
21046;SDS011;10682;50.874;3.656;2023-06-22T07:06:47;20.30;;;13.00;;
21046;SDS011;10682;50.874;3.656;2023-06-22T07:09:14;21.60;;;12.50;;
21046;SDS011;10682;50.874;3.656;2023-06-22T07:11:41;24.73;;;13.75;;
21046;SDS011;10682;50.874;3.656;2023-06-22T07:14:08;23.80;;;14.73;;
21046;SDS011;10682;50.874;3.656;2023-06-22T07:16:38;23.35;;;13.32;;
21046;SDS011;10682;50.874;3.656;2023-06-22T07:19:05;25.98;;;15.63;;
21046;SDS011;10682;50.874;3.656;2023-06-22T07:21:35;21.05;;;13.77;;
21046;SDS011;10682;50.874;3.656;2023-06-22T07:24:04;20.17;;;13.90;;
21046;SDS011;10682;50.874;3.656;2023-06-22T07:26:32;23.17;;;15.48;;
21046;SDS011;10682;50.874;3.656;2023-06-22T07:28:59;23.00;;;14.23;;
21046;SDS011;10682;50.874;3.656;2023-06-22T07:31:27;21.75;;;13.25;;
21046;SDS011;10682;50.874;3.656;2023-06-22T07:33:54;24.42;;;15.52;;
21046;SDS011;10682;50.874;3.656;2023-06-22T07:36:21;19.30;;;13.13;;
21046;SDS011;10682;50.874;3.656;2023-06-22T07:38:48;20.70;;;14.18;;
21046;SDS011;10682;50.874;3.656;2023-06-22T07:41:15;22.83;;;14.80;;
21046;SDS011;10682;50.874;3.656;2023-06-22T07:43:42;23.02;;;13.90;;
21046;SDS011;10682;50.874;3.656;2023-06-22T07:46:09;17.65;;;12.20;;
21046;SDS011;10682;50.874;3.656;2023-06-22T07:48:37;19.50;;;13.90;;
21046;SDS011;10682;50.874;3.656;2023-06-22T07:51:05;21.20;;;13.30;;
21046;SDS011;10682;50.874;3.656;2023-06-22T07:53:32;23.63;;;14.18;;
21046;SDS011;10682;50.874;3.656;2023-06-22T07:55:59;22.30;;;15.07;;
21046;SDS011;10682;50.874;3.656;2023-06-22T07:58:27;22.38;;;13.80;;
21046;SDS011;10682;50.874;3.656;2023-06-22T08:00:54;22.02;;;12.80;;
21046;SDS011;10682;50.874;3.656;2023-06-22T08:03:24;26.58;;;14.38;;
21046;SDS011;10682;50.874;3.656;2023-06-22T08:06:00;19.65;;;12.30;;
21046;SDS011;10682;50.874;3.656;2023-06-22T08:08:30;21.10;;;13.48;;
21046;SDS011;10682;50.874;3.656;2023-06-22T08:10:58;24.40;;;14.40;;
21046;SDS011;10682;50.874;3.656;2023-06-22T08:13:25;17.30;;;11.65;;
21046;SDS011;10682;50.874;3.656;2023-06-22T08:15:52;19.45;;;13.23;;
21046;SDS011;10682;50.874;3.656;2023-06-22T08:18:19;20.80;;;14.30;;
21046;SDS011;10682;50.874;3.656;2023-06-22T08:20:46;19.02;;;12.55;;
21046;SDS011;10682;50.874;3.656;2023-06-22T08:23:13;20.75;;;13.25;;
21046;SDS011;10682;50.874;3.656;2023-06-22T08:25:40;16.52;;;12.07;;
21046;SDS011;10682;50.874;3.656;2023-06-22T08:28:07;19.25;;;11.90;;
21046;SDS011;10682;50.874;3.656;2023-06-22T08:30:35;20.13;;;12.73;;
21046;SDS011;10682;50.874;3.656;2023-06-22T08:33:02;16.65;;;12.23;;
21046;SDS011;10682;50.874;3.656;2023-06-22T08:35:29;20.60;;;13.32;;
21046;SDS011;10682;50.874;3.656;2023-06-22T08:37:57;20.48;;;11.80;;
21046;SDS011;10682;50.874;3.656;2023-06-22T08:40:26;19.10;;;12.52;;
21046;SDS011;10682;50.874;3.656;2023-06-22T08:42:53;16.88;;;11.60;;
21046;SDS011;10682;50.874;3.656;2023-06-22T08:45:20;21.73;;;13.00;;
21046;SDS011;10682;50.874;3.656;2023-06-22T08:47:47;18.13;;;12.60;;
21046;SDS011;10682;50.874;3.656;2023-06-22T08:50:14;16.15;;;12.68;;
21046;SDS011;10682;50.874;3.656;2023-06-22T08:52:44;22.17;;;12.57;;
21046;SDS011;10682;50.874;3.656;2023-06-22T08:55:12;20.55;;;13.15;;
21046;SDS011;10682;50.874;3.656;2023-06-22T08:57:40;18.38;;;10.73;;
21046;SDS011;10682;50.874;3.656;2023-06-22T09:00:09;20.63;;;12.73;;
21046;SDS011;10682;50.874;3.656;2023-06-22T09:02:44;19.38;;;12.48;;
21046;SDS011;10682;50.874;3.656;2023-06-22T09:05:12;19.83;;;13.25;;
21046;SDS011;10682;50.874;3.656;2023-06-22T09:07:39;17.95;;;13.25;;
21046;SDS011;10682;50.874;3.656;2023-06-22T09:10:07;20.15;;;12.07;;
21046;SDS011;10682;50.874;3.656;2023-06-22T09:12:34;18.52;;;13.68;;
21046;SDS011;10682;50.874;3.656;2023-06-22T09:15:04;21.15;;;14.10;;
21046;SDS011;10682;50.874;3.656;2023-06-22T09:17:53;19.00;;;12.63;;
21046;SDS011;10682;50.874;3.656;2023-06-22T09:20:21;18.55;;;12.77;;
21046;SDS011;10682;50.874;3.656;2023-06-22T09:26:05;21.48;;;15.73;;
21046;SDS011;10682;50.874;3.656;2023-06-22T09:28:36;26.27;;;15.73;;
21046;SDS011;10682;50.874;3.656;2023-06-22T09:31:03;24.08;;;15.73;;
21046;SDS011;10682;50.874;3.656;2023-06-22T09:33:30;23.27;;;16.00;;
21046;SDS011;10682;50.874;3.656;2023-06-22T09:35:57;19.55;;;12.77;;
21046;SDS011;10682;50.874;3.656;2023-06-22T09:38:24;22.63;;;15.95;;
21046;SDS011;10682;50.874;3.656;2023-06-22T09:40:52;22.05;;;14.63;;
21046;SDS011;10682;50.874;3.656;2023-06-22T09:43:19;21.05;;;14.38;;
21046;SDS011;10682;50.874;3.656;2023-06-22T09:45:46;29.98;;;17.83;;
21046;SDS011;10682;50.874;3.656;2023-06-22T09:48:13;25.40;;;16.60;;
21046;SDS011;10682;50.874;3.656;2023-06-22T09:50:41;28.45;;;17.90;;
21046;SDS011;10682;50.874;3.656;2023-06-22T09:53:08;27.58;;;18.48;;
21046;SDS011;10682;50.874;3.656;2023-06-22T09:55:35;27.05;;;18.27;;
21046;SDS011;10682;50.874;3.656;2023-06-22T09:58:02;28.30;;;18.73;;
21046;SDS011;10682;50.874;3.656;2023-06-22T10:00:29;26.55;;;18.52;;
21046;SDS011;10682;50.874;3.656;2023-06-22T10:02:57;30.50;;;21.13;;
21046;SDS011;10682;50.874;3.656;2023-06-22T10:05:26;36.05;;;21.77;;
21046;SDS011;10682;50.874;3.656;2023-06-22T10:07:54;26.73;;;18.23;;
21046;SDS011;10682;50.874;3.656;2023-06-22T10:10:21;31.73;;;20.13;;
21046;SDS011;10682;50.874;3.656;2023-06-22T10:12:54;27.35;;;19.00;;
21046;SDS011;10682;50.874;3.656;2023-06-22T10:15:25;24.50;;;18.70;;
21046;SDS011;10682;50.874;3.656;2023-06-22T10:17:58;30.23;;;20.48;;
21046;SDS011;10682;50.874;3.656;2023-06-22T10:20:25;32.72;;;22.30;;
21046;SDS011;10682;50.874;3.656;2023-06-22T10:22:52;32.83;;;21.73;;
21046;SDS011;10682;50.874;3.656;2023-06-22T10:25:22;32.58;;;23.00;;
21046;SDS011;10682;50.874;3.656;2023-06-22T10:27:49;32.40;;;23.35;;
21046;SDS011;10682;50.874;3.656;2023-06-22T10:30:17;36.85;;;24.83;;
21046;SDS011;10682;50.874;3.656;2023-06-22T10:32:47;40.25;;;25.75;;
21046;SDS011;10682;50.874;3.656;2023-06-22T10:35:14;38.60;;;25.30;;
21046;SDS011;10682;50.874;3.656;2023-06-22T10:37:43;40.55;;;25.55;;
21046;SDS011;10682;50.874;3.656;2023-06-22T10:40:12;43.58;;;28.58;;
21046;SDS011;10682;50.874;3.656;2023-06-22T10:42:41;39.33;;;24.60;;
21046;SDS011;10682;50.874;3.656;2023-06-22T10:45:09;37.20;;;26.23;;
21046;SDS011;10682;50.874;3.656;2023-06-22T10:47:36;41.83;;;27.40;;
21046;SDS011;10682;50.874;3.656;2023-06-22T10:50:04;37.55;;;26.42;;
21046;SDS011;10682;50.874;3.656;2023-06-22T10:52:32;37.53;;;26.63;;
21046;SDS011;10682;50.874;3.656;2023-06-22T10:54:59;38.55;;;27.23;;
21046;SDS011;10682;50.874;3.656;2023-06-22T10:57:26;35.40;;;24.75;;
21046;SDS011;10682;50.874;3.656;2023-06-22T10:59:53;36.17;;;24.95;;
21046;SDS011;10682;50.874;3.656;2023-06-22T11:02:20;34.25;;;23.65;;
21046;SDS011;10682;50.874;3.656;2023-06-22T11:04:48;35.83;;;25.23;;
21046;SDS011;10682;50.874;3.656;2023-06-22T11:07:15;30.92;;;22.05;;
21046;SDS011;10682;50.874;3.656;2023-06-22T11:09:43;33.10;;;22.45;;
21046;SDS011;10682;50.874;3.656;2023-06-22T11:12:10;34.53;;;22.85;;
21046;SDS011;10682;50.874;3.656;2023-06-22T11:14:38;32.70;;;23.48;;
21046;SDS011;10682;50.874;3.656;2023-06-22T11:17:06;36.53;;;24.58;;
21046;SDS011;10682;50.874;3.656;2023-06-22T11:19:33;33.85;;;23.65;;
21046;SDS011;10682;50.874;3.656;2023-06-22T11:22:00;31.77;;;21.88;;
21046;SDS011;10682;50.874;3.656;2023-06-22T11:24:27;27.80;;;19.00;;
21046;SDS011;10682;50.874;3.656;2023-06-22T11:26:54;32.92;;;19.38;;
21046;SDS011;10682;50.874;3.656;2023-06-22T11:29:23;23.08;;;15.85;;
21046;SDS011;10682;50.874;3.656;2023-06-22T11:32:03;22.10;;;15.32;;
21046;SDS011;10682;50.874;3.656;2023-06-22T11:34:32;20.55;;;14.45;;
21046;SDS011;10682;50.874;3.656;2023-06-22T11:37:00;22.75;;;14.73;;
21046;SDS011;10682;50.874;3.656;2023-06-22T11:39:27;23.75;;;15.20;;
21046;SDS011;10682;50.874;3.656;2023-06-22T11:42:06;26.63;;;15.82;;
21046;SDS011;10682;50.874;3.656;2023-06-22T11:44:37;25.17;;;15.52;;
21046;SDS011;10682;50.874;3.656;2023-06-22T11:47:05;26.15;;;15.57;;
21046;SDS011;10682;50.874;3.656;2023-06-22T11:49:32;23.52;;;15.93;;
21046;SDS011;10682;50.874;3.656;2023-06-22T11:51:59;26.40;;;16.23;;
21046;SDS011;10682;50.874;3.656;2023-06-22T11:54:26;28.55;;;17.92;;
21046;SDS011;10682;50.874;3.656;2023-06-22T11:56:54;33.05;;;17.25;;
21046;SDS011;10682;50.874;3.656;2023-06-22T11:59:21;27.70;;;18.77;;
21046;SDS011;10682;50.874;3.656;2023-06-22T12:01:48;29.17;;;18.48;;
21046;SDS011;10682;50.874;3.656;2023-06-22T12:04:17;27.50;;;17.92;;
21046;SDS011;10682;50.874;3.656;2023-06-22T12:06:48;27.83;;;17.75;;
21046;SDS011;10682;50.874;3.656;2023-06-22T12:09:15;29.13;;;18.40;;
21046;SDS011;10682;50.874;3.656;2023-06-22T12:11:42;31.80;;;18.63;;
21046;SDS011;10682;50.874;3.656;2023-06-22T12:14:09;29.33;;;17.90;;
21046;SDS011;10682;50.874;3.656;2023-06-22T12:16:37;27.67;;;17.17;;
21046;SDS011;10682;50.874;3.656;2023-06-22T12:19:04;26.02;;;16.70;;
21046;SDS011;10682;50.874;3.656;2023-06-22T12:21:32;30.05;;;17.33;;
21046;SDS011;10682;50.874;3.656;2023-06-22T12:24:00;27.90;;;17.73;;
21046;SDS011;10682;50.874;3.656;2023-06-22T12:26:27;27.05;;;16.88;;
21046;SDS011;10682;50.874;3.656;2023-06-22T12:28:54;22.60;;;15.20;;
21046;SDS011;10682;50.874;3.656;2023-06-22T12:31:21;22.92;;;13.90;;
21046;SDS011;10682;50.874;3.656;2023-06-22T12:33:48;25.50;;;14.65;;
21046;SDS011;10682;50.874;3.656;2023-06-22T12:36:15;20.33;;;13.85;;
21046;SDS011;10682;50.874;3.656;2023-06-22T12:38:42;23.45;;;13.95;;
21046;SDS011;10682;50.874;3.656;2023-06-22T12:41:09;20.25;;;13.68;;
21046;SDS011;10682;50.874;3.656;2023-06-22T12:43:36;21.75;;;14.07;;
21046;SDS011;10682;50.874;3.656;2023-06-22T12:46:04;20.20;;;13.77;;
21046;SDS011;10682;50.874;3.656;2023-06-22T12:48:31;20.13;;;12.75;;
21046;SDS011;10682;50.874;3.656;2023-06-22T12:50:58;21.42;;;13.30;;
21046;SDS011;10682;50.874;3.656;2023-06-22T12:53:25;19.45;;;12.10;;
21046;SDS011;10682;50.874;3.656;2023-06-22T12:55:53;19.42;;;12.20;;
21046;SDS011;10682;50.874;3.656;2023-06-22T12:58:20;18.80;;;11.30;;
21046;SDS011;10682;50.874;3.656;2023-06-22T13:00:48;22.65;;;13.23;;
21046;SDS011;10682;50.874;3.656;2023-06-22T13:03:15;18.17;;;11.40;;
21046;SDS011;10682;50.874;3.656;2023-06-22T13:05:42;19.63;;;12.07;;
21046;SDS011;10682;50.874;3.656;2023-06-22T13:08:09;17.23;;;10.93;;
21046;SDS011;10682;50.874;3.656;2023-06-22T13:10:38;20.02;;;12.48;;
21046;SDS011;10682;50.874;3.656;2023-06-22T13:13:05;17.73;;;10.23;;
21046;SDS011;10682;50.874;3.656;2023-06-22T13:15:32;19.02;;;11.30;;
21046;SDS011;10682;50.874;3.656;2023-06-22T13:18:00;20.45;;;11.77;;
21046;SDS011;10682;50.874;3.656;2023-06-22T13:20:28;21.38;;;11.73;;
21046;SDS011;10682;50.874;3.656;2023-06-22T13:22:55;19.58;;;12.60;;
21046;SDS011;10682;50.874;3.656;2023-06-22T13:25:23;17.85;;;11.38;;
21046;SDS011;10682;50.874;3.656;2023-06-22T13:27:53;23.95;;;12.70;;
21046;SDS011;10682;50.874;3.656;2023-06-22T13:30:20;18.92;;;12.38;;
21046;SDS011;10682;50.874;3.656;2023-06-22T13:32:47;22.00;;;13.18;;
21046;SDS011;10682;50.874;3.656;2023-06-22T13:35:17;25.90;;;14.45;;
21046;SDS011;10682;50.874;3.656;2023-06-22T13:37:44;28.20;;;14.75;;
21046;SDS011;10682;50.874;3.656;2023-06-22T13:40:11;30.40;;;16.50;;
21046;SDS011;10682;50.874;3.656;2023-06-22T13:42:39;25.60;;;15.27;;
21046;SDS011;10682;50.874;3.656;2023-06-22T13:45:06;27.88;;;16.48;;
21046;SDS011;10682;50.874;3.656;2023-06-22T13:47:34;28.98;;;16.27;;
21046;SDS011;10682;50.874;3.656;2023-06-22T13:50:01;25.77;;;15.75;;
21046;SDS011;10682;50.874;3.656;2023-06-22T13:52:29;26.58;;;14.77;;
21046;SDS011;10682;50.874;3.656;2023-06-22T13:54:56;27.23;;;16.00;;
21046;SDS011;10682;50.874;3.656;2023-06-22T13:57:23;25.05;;;14.20;;
21046;SDS011;10682;50.874;3.656;2023-06-22T13:59:50;28.63;;;15.07;;
21046;SDS011;10682;50.874;3.656;2023-06-22T14:02:17;27.58;;;14.75;;
21046;SDS011;10682;50.874;3.656;2023-06-22T14:07:30;24.05;;;16.23;;
21046;SDS011;10682;50.874;3.656;2023-06-22T14:09:58;24.58;;;15.45;;
21046;SDS011;10682;50.874;3.656;2023-06-22T14:12:26;25.02;;;17.10;;
21046;SDS011;10682;50.874;3.656;2023-06-22T14:14:54;26.35;;;15.90;;
21046;SDS011;10682;50.874;3.656;2023-06-22T14:17:21;25.73;;;16.80;;
21046;SDS011;10682;50.874;3.656;2023-06-22T14:19:52;30.55;;;17.58;;
21046;SDS011;10682;50.874;3.656;2023-06-22T14:22:19;31.23;;;18.13;;
21046;SDS011;10682;50.874;3.656;2023-06-22T14:24:47;28.40;;;17.60;;
21046;SDS011;10682;50.874;3.656;2023-06-22T14:27:15;24.40;;;16.60;;
21046;SDS011;10682;50.874;3.656;2023-06-22T14:29:42;25.42;;;16.55;;
21046;SDS011;10682;50.874;3.656;2023-06-22T14:32:09;28.85;;;18.50;;
21046;SDS011;10682;50.874;3.656;2023-06-22T14:34:36;27.85;;;17.40;;
21046;SDS011;10682;50.874;3.656;2023-06-22T14:37:08;28.20;;;17.20;;
21046;SDS011;10682;50.874;3.656;2023-06-22T14:39:37;26.70;;;17.83;;
21046;SDS011;10682;50.874;3.656;2023-06-22T14:42:05;28.80;;;17.23;;
21046;SDS011;10682;50.874;3.656;2023-06-22T14:44:32;28.35;;;16.10;;
21046;SDS011;10682;50.874;3.656;2023-06-22T14:47:00;24.88;;;16.70;;
21046;SDS011;10682;50.874;3.656;2023-06-22T14:49:27;26.10;;;16.17;;